Time;durP1;ratioP1;P1;durP2;ratioP2;P2;SDS_P1;SDS_P2;PMS_P1;PMS_P2;Temp;Humidity;BMP_temperature;BMP_pressure;BME280_temperature;BME280_humidity;BME280_pressure;Samples;Min_cycle;Max_cycle;Signal;HPM_P1;HPM_P2
2022/01/08 19:25:44;;;;;;;0.67;0.67;;;7.70;99.90;7.50;98895.00;;;;6139166;23;1298294;-66
2022/01/08 19:28:10;;;;;;;0.93;0.87;;;7.70;99.90;7.50;98858.00;;;;6182716;23;20492;-66
2022/01/08 19:30:38;;;;;;;0.50;0.50;;;7.70;99.90;7.60;98888.00;;;;6160513;23;20158;-66
2022/01/08 19:33:06;;;;;;;0.70;0.70;;;7.80;99.90;7.60;98845.00;;;;6187189;23;20203;-66
2022/01/08 19:35:34;;;;;;;0.87;0.80;;;7.80;99.90;7.50;98869.00;;;;6186407;23;20226;-65
2022/01/08 19:38:03;;;;;;;0.97;0.97;;;7.70;99.90;7.30;98852.00;;;;6186960;23;20147;-66
2022/01/08 19:40:31;;;;;;;1.53;1.07;;;7.70;99.90;7.40;98846.00;;;;6160321;23;20144;-66
2022/01/08 19:42:58;;;;;;;0.70;0.70;;;7.70;99.90;7.40;98838.00;;;;6186038;23;20171;-66
2022/01/08 19:45:25;;;;;;;1.10;1.10;;;7.70;99.90;7.70;98795.00;;;;6160825;23;20158;-65
2022/01/08 19:47:50;;;;;;;1.67;1.57;;;7.80;99.90;7.60;98821.00;;;;6187046;23;20147;-68
2022/01/08 19:50:29;;;;;;;1.23;0.93;;;7.80;99.90;7.50;98824.00;;;;6186086;23;20205;-68
2022/01/08 19:52:55;;;;;;;1.07;1.07;;;7.80;99.90;7.40;98793.00;;;;6186616;23;20158;-67
2022/01/08 19:55:21;;;;;;;1.63;1.53;;;7.70;99.90;7.50;98781.00;;;;6160440;23;20457;-67
2022/01/08 19:57:47;;;;;;;0.77;0.77;;;7.70;99.90;7.40;98806.00;;;;6159715;23;20177;-65
2022/01/08 20:00:14;;;;;;;0.60;0.60;;;7.70;99.90;7.60;98800.00;;;;6160534;23;20635;-65
2022/01/08 20:02:41;;;;;;;1.03;0.87;;;7.70;99.90;7.50;98795.00;;;;6186842;23;20167;-65
2022/01/08 20:05:11;;;;;;;0.40;0.40;;;7.70;99.90;7.50;98750.00;;;;6185231;23;20143;-66
2022/01/08 20:07:37;;;;;;;0.60;0.60;;;7.70;99.90;7.50;98782.00;;;;6161170;23;20143;-66
2022/01/08 20:10:05;;;;;;;0.50;0.50;;;7.70;99.90;7.50;98769.00;;;;6160398;23;20144;-65
2022/01/08 20:12:31;;;;;;;1.67;1.33;;;7.70;99.90;7.50;98742.00;;;;6159720;23;20147;-65
2022/01/08 20:14:56;;;;;;;0.60;0.60;;;7.70;99.90;7.50;98760.00;;;;6186545;23;20190;-66
2022/01/08 20:17:22;;;;;;;2.17;1.97;;;7.60;99.90;7.70;98747.00;;;;6160498;23;20217;-65
2022/01/08 20:19:53;;;;;;;0.60;0.60;;;7.80;99.90;7.70;98760.00;;;;6185961;23;20158;-66
2022/01/08 20:22:19;;;;;;;0.97;0.97;;;7.80;99.90;7.70;98706.00;;;;6186394;23;20205;-67
2022/01/08 20:24:45;;;;;;;0.97;0.97;;;7.80;99.90;7.50;98705.00;;;;6186373;23;20592;-67
2022/01/08 20:27:11;;;;;;;1.10;1.10;;;7.80;99.90;7.30;98720.00;;;;6159191;23;20157;-68
2022/01/08 20:29:37;;;;;;;0.57;0.57;;;7.60;99.90;7.60;98692.00;;;;6160146;23;20149;-67
2022/01/08 20:32:04;;;;;;;3.30;1.90;;;7.70;99.90;7.50;98730.00;;;;6186111;23;20461;-67
2022/01/08 20:34:35;;;;;;;1.33;1.20;;;7.70;99.90;7.70;98729.00;;;;6183715;23;20198;-67
2022/01/08 20:37:14;;;;;;;4.87;3.27;;;7.80;99.90;7.70;98725.00;;;;6159549;23;20226;-67
2022/01/08 20:40:06;;;;;;;1.70;1.50;;;7.80;99.90;7.60;98718.00;;;;6160208;23;20186;-67
2022/01/08 20:42:38;;;;;;;0.60;0.60;;;7.80;99.90;7.60;98715.00;;;;6158967;23;20184;-67
2022/01/08 20:45:06;;;;;;;0.53;0.53;;;7.80;99.90;7.60;98708.00;;;;6186161;23;20206;-67
2022/01/08 20:47:32;;;;;;;0.50;0.50;;;7.80;99.90;7.60;98702.00;;;;6184829;23;20562;-67
2022/01/08 20:50:09;;;;;;;0.60;0.60;;;7.70;99.90;7.70;98696.00;;;;6185575;23;20286;-66
2022/01/08 20:52:44;;;;;;;0.60;0.60;;;7.80;99.90;7.50;98688.00;;;;6159829;23;20167;-66
2022/01/08 20:55:17;;;;;;;0.60;0.60;;;7.80;99.90;7.60;98661.00;;;;6159700;23;20143;-67
2022/01/08 20:57:46;;;;;;;0.53;0.53;;;7.80;99.90;7.60;98678.00;;;;6160548;23;20136;-67
2022/01/08 21:00:15;;;;;;;0.60;0.60;;;7.80;99.90;7.70;98687.00;;;;6182981;23;20221;-66
2022/01/08 21:02:47;;;;;;;0.70;0.70;;;7.80;99.90;7.70;98671.00;;;;6185730;23;20205;-66
2022/01/08 21:05:21;;;;;;;0.77;0.77;;;7.80;99.90;7.50;98664.00;;;;6186022;23;20230;-66
2022/01/08 21:08:01;;;;;;;0.60;0.60;;;7.80;99.90;7.80;98658.00;;;;6159685;23;20170;-66
2022/01/08 21:10:32;;;;;;;0.67;0.67;;;7.80;99.90;7.60;98658.00;;;;6158329;23;20638;-66
2022/01/08 21:13:12;;;;;;;0.57;0.57;;;7.80;99.90;7.70;98663.00;;;;6185633;23;20265;-66
2022/01/08 21:15:41;;;;;;;0.90;0.90;;;7.80;99.90;7.90;98668.00;;;;6186103;23;20142;-67
2022/01/08 21:18:12;;;;;;;0.60;0.60;;;7.90;99.90;7.90;98666.00;;;;6159239;23;20246;-67
2022/01/08 21:20:44;;;;;;;0.50;0.50;;;7.90;99.90;8.20;98655.00;;;;6159950;23;20174;-67
2022/01/08 21:23:21;;;;;;;0.50;0.50;;;8.00;99.90;8.70;98655.00;;;;6159823;23;20193;-67
2022/01/08 21:25:52;;;;;;;0.93;0.93;;;8.30;99.90;8.10;98648.00;;;;6152548;23;20250;-67
2022/01/08 21:28:26;;;;;;;0.50;0.50;;;8.10;99.90;7.90;98644.00;;;;6154760;23;20140;-66
2022/01/08 21:30:58;;;;;;;0.50;0.50;;;8.00;99.90;8.00;98632.00;;;;6153035;23;20492;-65
2022/01/08 21:33:31;;;;;;;0.50;0.50;;;8.00;99.90;8.60;98643.00;;;;6153565;23;20167;-66
2022/01/08 21:36:14;;;;;;;1.53;1.43;;;8.20;99.90;8.00;98641.00;;;;6130041;23;20234;-65
2022/01/08 21:38:54;;;;;;;1.03;1.03;;;8.20;99.90;7.70;98636.00;;;;6156005;23;20311;-65
2022/01/08 21:41:28;;;;;;;1.17;1.17;;;8.00;99.90;8.00;98647.00;;;;6154290;23;20140;-65
2022/01/08 21:44:01;;;;;;;0.70;0.70;;;8.10;99.90;7.70;98648.00;;;;6154210;23;20147;-66
2022/01/08 21:46:38;;;;;;;7.07;0.97;;;8.00;99.90;7.80;98655.00;;;;6152301;23;20148;-66
2022/01/08 21:49:06;;;;;;;1.13;1.03;;;8.00;99.90;8.10;98656.00;;;;6152979;23;20144;-66
2022/01/08 21:51:43;;;;;;;0.70;0.70;;;8.10;99.90;8.00;98653.00;;;;6153039;23;20159;-66
2022/01/08 21:54:22;;;;;;;1.37;1.27;;;8.20;99.90;8.20;98698.00;;;;6155348;23;20147;-66
2022/01/08 21:56:51;;;;;;;1.37;1.27;;;8.20;99.90;8.00;98725.00;;;;6153733;23;20558;-66
2022/01/08 21:59:25;;;;;;;1.40;1.30;;;8.10;99.90;7.40;98712.00;;;;6153184;23;20193;-66
2022/01/08 22:01:56;;;;;;;1.57;1.33;;;7.80;99.90;7.40;98717.00;;;;6153276;23;20635;-65
2022/01/08 22:04:36;;;;;;;0.83;0.83;;;7.50;99.90;7.50;98680.00;;;;6155810;23;20235;-65
2022/01/08 22:07:07;;;;;;;0.80;0.80;;;7.50;99.90;7.40;98725.00;;;;6153154;23;20163;-65
2022/01/08 22:09:38;;;;;;;0.70;0.70;;;7.50;99.90;7.70;98732.00;;;;6155779;23;20150;-65
2022/01/08 22:12:09;;;;;;;2.63;1.43;;;7.60;99.90;7.50;98719.00;;;;6154486;23;20152;-66
2022/01/08 22:14:38;;;;;;;0.80;0.80;;;7.60;99.90;7.70;98730.00;;;;6154821;23;20609;-65
2022/01/08 22:17:15;;;;;;;0.70;0.70;;;7.60;99.90;7.40;98732.00;;;;6154298;23;20158;-65
2022/01/08 22:19:42;;;;;;;0.63;0.63;;;7.50;99.90;7.40;98747.00;;;;6153312;23;20157;-65
2022/01/08 22:33:30;;;;;;;1.60;0.83;;;7.00;99.90;6.80;98775.00;;;;5070227;28;20672;-63
2022/01/08 22:36:07;;;;;;;2.17;0.97;;;7.10;99.90;7.30;98761.00;;;;5049995;28;20189;-63
2022/01/08 22:38:41;;;;;;;1.00;1.00;;;7.30;99.90;7.60;98778.00;;;;5050362;28;20190;-66
2022/01/08 22:41:15;;;;;;;5.13;1.60;;;7.50;99.90;7.50;98765.00;;;;5049975;28;20214;-66
2022/01/08 22:43:49;;;;;;;1.20;1.20;;;7.60;99.90;7.90;98784.00;;;;5050098;28;20206;-63
2022/01/08 22:46:26;;;;;;;3.37;1.13;;;7.70;99.90;7.70;98799.00;;;;5050596;28;20269;-64
2022/01/08 22:49:04;;;;;;;1.90;1.00;;;7.70;99.90;7.60;98795.00;;;;5050017;28;20180;-64
2022/01/08 22:51:40;;;;;;;2.63;1.00;;;7.60;99.90;7.50;98798.00;;;;5049744;28;20621;-64
2022/01/08 22:54:15;;;;;;;1.00;1.00;;;7.60;99.90;7.60;98815.00;;;;5049997;28;20195;-64
2022/01/08 22:56:54;;;;;;;2.17;1.97;;;7.50;99.90;7.30;98799.00;;;;5050137;28;20177;-64
2022/01/08 22:59:31;;;;;;;1.10;1.10;;;7.50;99.90;7.10;98811.00;;;;5049822;28;20182;-64
2022/01/08 23:02:13;;;;;;;6.43;1.60;;;7.40;99.90;7.50;98796.00;;;;5050003;28;20628;-65
2022/01/08 23:04:52;;;;;;;5.13;1.83;;;7.40;99.90;7.50;98842.00;;;;5064425;28;20192;-64
2022/01/08 23:07:31;;;;;;;9.00;2.30;;;7.40;99.90;7.30;98836.00;;;;5049904;28;20280;-64
2022/01/08 23:10:04;;;;;;;3.60;1.67;;;7.40;99.90;7.20;98843.00;;;;5064989;28;20236;-64
2022/01/08 23:12:40;;;;;;;1.00;1.00;;;7.40;99.90;7.20;98835.00;;;;5064815;28;20248;-65
2022/01/08 23:15:17;;;;;;;5.60;3.83;;;7.30;99.90;7.10;98875.00;;;;5049390;28;20177;-64
2022/01/08 23:17:51;;;;;;;1.70;1.40;;;7.20;99.90;7.00;98878.00;;;;5049553;28;20185;-64
2022/01/08 23:20:27;;;;;;;3.20;2.50;;;7.20;99.90;6.90;98885.00;;;;5064699;28;20173;-64
2022/01/08 23:23:01;;;;;;;1.00;1.00;;;7.00;99.90;6.90;98901.00;;;;5049143;28;20265;-65
2022/01/08 23:25:41;;;;;;;1.87;1.87;;;7.00;99.90;6.70;98906.00;;;;5049101;28;20658;-64
2022/01/08 23:28:18;;;;;;;1.33;1.33;;;6.90;99.90;6.80;98899.00;;;;5049532;28;20603;-64
2022/01/08 23:30:57;;;;;;;1.10;1.10;;;6.90;99.90;6.70;98893.00;;;;5049549;28;20175;-65
2022/01/08 23:33:36;;;;;;;1.10;1.10;;;6.90;99.90;7.10;98910.00;;;;5064512;28;20194;-65
2022/01/08 23:36:16;;;;;;;1.60;1.60;;;6.90;99.90;6.90;98923.00;;;;5049164;28;20621;-64
2022/01/08 23:38:50;;;;;;;1.10;1.10;;;7.00;99.90;7.10;98931.00;;;;5062359;28;20660;-65
2022/01/08 23:41:26;;;;;;;4.83;1.53;;;7.00;99.90;7.20;98928.00;;;;5048911;28;20220;-65
2022/01/08 23:44:03;;;;;;;3.53;1.40;;;7.10;99.90;6.90;98924.00;;;;5039608;28;20178;-65
2022/01/08 23:46:39;;;;;;;1.73;1.67;;;7.00;99.90;7.00;98947.00;;;;5034839;28;20541;-65
2022/01/08 23:49:16;;;;;;;3.43;3.13;;;7.00;99.90;7.10;98948.00;;;;5034860;28;20185;-65
2022/01/08 23:51:55;;;;;;;1.60;1.60;;;7.10;99.90;7.30;98925.00;;;;5034455;28;20203;-65
2022/01/08 23:54:31;;;;;;;1.50;1.50;;;7.10;99.90;7.30;98970.00;;;;5035497;28;20186;-65
2022/01/08 23:57:06;;;;;;;1.50;1.50;;;7.20;99.90;7.30;98964.00;;;;5036144;28;20181;-65
2022/01/08 23:59:40;;;;;;;1.50;1.50;;;7.30;99.90;7.50;98980.00;;;;5036028;28;20705;-65
